PENO2: Grand Lake O' The Cherokees, Pensacola Dm

Data processed at Thu Dec 07 2017 23:31


All information presented herein is the property of the government of the United States of America and may be revised or deleted at any time without prior notice.
Dissemination of this information without the expressed written consent of the Public Affairs Office, Tulsa District U.S. Army Corps of Engineers is strictly prohibited.
These data are gathered electronically and, as presented, have not undergone any form of quality control. These data are not guaranteed to be valid or correct.
Go to home page.
Go to station list.

Upstream stations:

Downstream station:
Previous Day
Next Day
Current Day
    
SHEF ID:       PENO2     Lake O' the Cherokees at Langley
STATION TYPE:  RESERVOIR

               PRECIP ELEVATION   STORAGE    INFLOW   RELEASE  AIR-TEMP  WIND-DIRWIND-SPEED REL-HUMID SOLAR-RAD   VOLTAGE  BAT-LOAD
                   in        ft     ac-ft       cfs       cfs         F       deg       mph         %      W/m2      volt      volt
              Ccp-Rev   Ccp-Rev   Ccp-Rev  Regi-Rev  Regi-Rev   Ccp-Rev   Ccp-Rev   Ccp-Rev   Ccp-Rev   Ccp-Rev   Ccp-Rev   Ccp-Rev
(US/Central)
12/05 00:00      0.00    742.02   1393506       356         0     46.67    314.53     11.73     49.04      0.00     12.67     12.41
12/05 01:00      0.00    742.05   1394715       178         0     44.33    315.67     15.81     53.01      0.00     12.65     12.41
12/05 02:00      0.00    742.05   1394715       444         0     42.89    323.77     13.36     57.24      0.00     12.64     12.41
12/05 03:00      0.00    742.06   1395118       888         0     41.36    324.40     11.71     60.14      0.00     12.64     12.41
12/05 04:00      0.00    742.05   1394715      1332         0     38.80    323.11     15.38     59.60      0.00     12.62     12.41
12/05 05:00      0.00    742.08   1395924      1332         0     37.49    323.89     14.31     58.93      0.00     12.62     12.33
12/05 06:00      0.00    742.07   1395521      1332         0     36.18    326.20     13.15     57.46      0.00     13.41     12.33
12/05 07:00      0.00    742.07   1395521       888         0     35.91    328.28     12.36     52.54      0.00     13.49     13.05
12/05 08:00      0.00    742.04   1394312       444         0     35.83    328.38     11.41     50.51      0.00     13.09     13.05
12/05 09:00      0.00    742.03   1393909         0         0     36.00    331.13      9.98     48.80      5.19     12.88     12.65
12/05 10:00      0.00    742.02   1393506         0         0     36.16    329.49      7.54     46.75     37.06     12.81     12.57
12/05 11:00      0.00    742.02   1393506         0      1202     36.63    319.68      8.69     45.87    122.84     12.77     12.49
12/05 12:00      0.00    742.01   1393103         2      2185     38.26    322.27      6.85     41.60    341.14     12.72     12.49
12/05 13:00      0.00    742.00   1392700         3      2185     40.32    314.50      6.94     36.21    313.82     12.69     12.41
12/05 14:00      0.00    742.00   1392700         3      2185     43.25    298.87      5.61     29.70    480.77     12.66     12.41
12/05 15:00      0.00    742.00   1392700         3       325     44.56    278.68      5.92     24.45    290.69     12.63     12.41
12/05 16:00      0.00    742.00   1392700         3         0     45.43    253.05      4.03     23.18    191.02     12.62     12.33
12/05 17:00      0.00    741.99   1392304         2         0     44.15    242.15      3.20     24.27     31.90     12.62     12.33
12/05 18:00      0.00    741.97   1391512         0         0     41.79    195.89      1.30     30.08      0.00     12.61     12.33
12/05 19:00      0.00    741.97   1391512         0         0     40.01    160.80      1.41     35.07      0.00     12.60     12.33
12/05 20:00      0.00    741.97   1391512        24         0     38.44    154.35      0.93     41.07      0.00     12.59     12.33
12/05 21:00      0.00    741.97   1391512        47         0     37.29    157.77      1.59     46.36      0.00     12.59     12.33
12/05 22:00      0.00    741.97   1391512        47         0     36.68    156.28      1.20     48.91      0.00     12.58     12.33
12/05 23:00      0.00    741.97   1391512        47         0     35.80    127.61      1.44     54.90      0.00     12.58     12.33